Time;durP1;ratioP1;P1;durP2;ratioP2;P2;SDS_P1;SDS_P2;PMS_P1;PMS_P2;Temp;Humidity;BMP_temperature;BMP_pressure;BME280_temperature;BME280_humidity;BME280_pressure;Samples;Min_cycle;Max_cycle;Signal;HPM_P1;HPM_P2
2022/08/19 00:00:46;;;;;;;15.05;8.23;;;;;;;22.38;55.52;100224.63;5052058;28;20025;-56
2022/08/19 00:03:11;;;;;;;13.35;8.23;;;;;;;22.24;55.47;100215.72;5048892;28;20332;-57
2022/08/19 00:05:37;;;;;;;12.68;7.40;;;;;;;22.15;55.90;100215.47;5061650;28;20218;-57
2022/08/19 00:08:03;;;;;;;12.73;8.23;;;;;;;22.21;55.90;100221.19;5046398;28;20021;-57
2022/08/19 00:10:29;;;;;;;20.23;8.25;;;;;;;22.23;55.58;100216.69;5049929;28;20029;-58
2022/08/19 00:12:54;;;;;;;13.20;7.20;;;;;;;22.29;55.66;100214.59;5065778;28;20053;-58
2022/08/19 00:15:21;;;;;;;12.68;8.13;;;;;;;22.36;55.18;100223.84;5076378;28;20025;-58
2022/08/19 00:17:47;;;;;;;12.73;8.10;;;;;;;22.13;55.62;100227.88;5086214;28;20082;-58
2022/08/19 00:20:19;;;;;;;13.15;8.32;;;;;;;21.82;55.63;100198.94;5083685;28;20025;-58
2022/08/19 00:22:47;;;;;;;15.43;8.40;;;;;;;22.13;55.12;100238.44;5046091;28;20029;-57
2022/08/19 00:25:13;;;;;;;10.95;8.45;;;;;;;21.97;55.73;100233.25;5081255;28;20024;-56
2022/08/19 00:27:39;;;;;;;18.10;9.38;;;;;;;21.92;55.58;100230.91;5085344;28;20021;-56
2022/08/19 00:30:07;;;;;;;15.45;8.82;;;;;;;21.86;55.85;100231.25;5069463;28;20035;-56
2022/08/19 00:32:34;;;;;;;15.43;9.18;;;;;;;21.96;55.66;100242.97;5065745;28;20036;-57
2022/08/19 00:35:00;;;;;;;15.00;9.30;;;;;;;21.82;56.19;100241.13;5065786;28;20028;-57
2022/08/19 00:37:26;;;;;;;18.80;9.43;;;;;;;21.81;55.93;100241.22;5065711;28;20029;-56
2022/08/19 00:39:53;;;;;;;16.85;9.35;;;;;;;21.43;55.83;100181.88;5065316;28;20272;-56
2022/08/19 00:42:20;;;;;;;16.08;8.77;;;;;;;21.68;56.15;100226.13;5065518;28;20317;-56
2022/08/19 00:44:47;;;;;;;13.07;9.10;;;;;;;21.71;56.30;100233.03;5065424;28;20314;-56
2022/08/19 00:47:13;;;;;;;16.58;9.95;;;;;;;21.73;55.79;100225.84;5047340;28;20025;-57
2022/08/19 00:49:52;;;;;;;14.45;9.43;;;;;;;21.58;55.84;100237.28;5063064;28;20353;-57
2022/08/19 00:52:28;;;;;;;12.85;8.55;;;;;;;21.38;56.12;100191.84;5065450;28;20029;-58
2022/08/19 00:54:55;;;;;;;13.88;8.68;;;;;;;21.78;55.69;100236.97;5065350;28;20205;-57
2022/08/19 00:57:27;;;;;;;14.13;8.75;;;;;;;21.63;55.56;100195.72;5055173;28;20202;-57
2022/08/19 00:59:55;;;;;;;16.55;8.18;;;;;;;21.53;55.73;100200.66;5045276;28;20060;-58
2022/08/19 01:02:21;;;;;;;14.70;8.55;;;;;;;21.54;56.07;100260.38;5045205;28;20033;-58
2022/08/19 01:04:47;;;;;;;14.30;8.88;;;;;;;21.51;56.29;100266.66;5049628;28;20028;-57
2022/08/19 01:07:13;;;;;;;14.40;8.25;;;;;;;21.38;56.53;100265.66;5064762;28;20045;-58
2022/08/19 01:09:38;;;;;;;14.60;7.60;;;;;;;21.61;56.16;100276.69;5064889;28;20029;-57
2022/08/19 01:12:04;;;;;;;17.58;8.77;;;;;;;21.38;56.89;100271.75;5057147;28;20306;-58
2022/08/19 01:14:30;;;;;;;13.02;8.32;;;;;;;21.49;56.35;100280.81;5048269;28;20029;-57
2022/08/19 01:16:57;;;;;;;13.10;7.93;;;;;;;21.58;56.18;100279.47;5065016;28;20031;-57
2022/08/19 01:19:37;;;;;;;12.05;8.00;;;;;;;21.32;56.35;100250.16;5083519;28;20047;-57
2022/08/19 01:22:02;;;;;;;13.13;8.60;;;;;;;21.29;56.71;100269.66;5084713;28;20020;-58
2022/08/19 01:24:28;;;;;;;11.90;8.32;;;;;;;21.34;56.65;100272.88;5062642;28;20245;-58
2022/08/19 01:26:54;;;;;;;13.25;8.23;;;;;;;21.28;56.96;100275.03;5044755;28;20269;-58
2022/08/19 01:29:20;;;;;;;11.25;8.20;;;;;;;21.29;56.84;100272.28;5054882;28;20048;-56
2022/08/19 01:31:46;;;;;;;12.60;8.27;;;;;;;21.41;56.82;100276.00;5064635;28;20024;-56
2022/08/19 01:34:11;;;;;;;16.00;8.20;;;;;;;21.42;56.26;100271.56;5081521;28;20024;-56
2022/08/19 01:36:46;;;;;;;18.42;7.80;;;;;;;21.09;57.52;100289.22;5070524;28;20218;-56
2022/08/19 01:39:22;;;;;;;9.52;7.60;;;;;;;21.14;56.71;100258.19;5044353;28;20049;-56
2022/08/19 01:41:48;;;;;;;11.88;7.57;;;;;;;21.13;57.03;100276.72;5060756;28;20021;-57
2022/08/19 01:44:14;;;;;;;12.68;8.00;;;;;;;21.19;57.02;100276.34;5063570;28;20037;-55
2022/08/19 01:46:41;;;;;;;11.23;7.82;;;;;;;21.29;56.64;100277.56;5051214;28;20036;-55
2022/08/19 01:49:07;;;;;;;14.63;7.88;;;;;;;21.24;56.87;100273.50;5064127;28;20029;-55
2022/08/19 01:51:33;;;;;;;14.07;7.75;;;;;;;21.27;57.03;100268.88;5064008;28;20054;-55
2022/08/19 01:53:59;;;;;;;14.48;7.35;;;;;;;21.33;56.76;100259.78;5071021;28;20052;-55
2022/08/19 01:56:25;;;;;;;13.95;7.68;;;;;;;21.18;56.69;100262.34;5062462;28;20025;-55
2022/08/19 01:58:55;;;;;;;15.25;7.72;;;;;;;20.92;57.46;100249.78;5042730;28;20222;-55
2022/08/19 02:01:21;;;;;;;10.73;7.53;;;;;;;21.20;56.90;100259.63;5043998;28;20405;-55
2022/08/19 02:03:47;;;;;;;14.70;8.15;;;;;;;21.24;56.88;100255.03;5054480;28;20059;-56
2022/08/19 02:06:13;;;;;;;12.55;7.35;;;;;;;21.35;56.73;100263.19;5063804;28;20028;-55
2022/08/19 02:08:39;;;;;;;12.73;8.20;;;;;;;21.25;56.46;100260.22;5063860;28;20034;-56
2022/08/19 02:11:07;;;;;;;12.10;7.78;;;;;;;21.12;57.37;100272.38;5063334;28;20217;-56
2022/08/19 02:13:33;;;;;;;12.60;7.70;;;;;;;21.07;57.20;100262.09;5044064;28;20191;-57
2022/08/19 02:16:20;;;;;;;13.90;7.63;;;;;;;20.88;57.72;100269.31;5078553;28;20037;-56
2022/08/19 02:18:48;;;;;;;13.05;8.15;;;;;;;20.73;57.97;100271.84;5050080;28;20029;-57
2022/08/19 02:21:15;;;;;;;14.02;8.52;;;;;;;20.60;57.93;100252.38;5043915;28;20306;-55
2022/08/19 02:23:42;;;;;;;15.70;8.98;;;;;;;20.91;57.80;100282.31;5042618;28;20037;-55
2022/08/19 02:26:08;;;;;;;15.70;8.90;;;;;;;20.77;57.99;100281.28;5043664;28;20089;-56
2022/08/19 02:28:34;;;;;;;14.95;8.75;;;;;;;20.89;57.61;100279.75;5047247;28;20080;-56
2022/08/19 02:31:02;;;;;;;13.90;8.25;;;;;;;20.82;57.47;100274.00;5062474;28;20025;-57
2022/08/19 02:33:28;;;;;;;14.45;7.80;;;;;;;20.81;58.03;100288.09;5063367;28;20034;-57
2022/08/19 02:35:53;;;;;;;12.43;8.32;;;;;;;20.84;57.76;100289.72;5069038;28;20055;-59
2022/08/19 02:38:25;;;;;;;13.57;7.65;;;;;;;20.85;57.90;100294.91;5058558;28;20057;-58
2022/08/19 02:40:53;;;;;;;14.10;8.30;;;;;;;21.01;57.66;100294.06;5043604;28;20099;-57
2022/08/19 02:43:20;;;;;;;12.55;7.55;;;;;;;21.08;57.38;100282.25;5078394;28;20087;-57
2022/08/19 02:45:47;;;;;;;15.88;7.72;;;;;;;21.15;56.86;100291.50;5057450;28;20036;-57
2022/08/19 02:48:17;;;;;;;12.27;7.70;;;;;;;20.78;57.97;100296.16;5050454;28;20096;-58
2022/08/19 02:50:43;;;;;;;13.43;7.35;;;;;;;20.73;58.25;100298.19;5062414;28;20029;-58
2022/08/19 02:53:09;;;;;;;15.90;8.23;;;;;;;20.94;57.71;100296.16;5062304;28;20090;-57
2022/08/19 02:55:35;;;;;;;11.45;7.57;;;;;;;20.78;58.08;100304.06;5063166;28;20071;-58
2022/08/19 02:58:01;;;;;;;16.20;8.50;;;;;;;20.70;58.34;100301.00;5076805;28;20028;-58
2022/08/19 03:00:27;;;;;;;12.00;7.90;;;;;;;20.70;58.44;100301.00;5067588;28;20044;-58
2022/08/19 03:02:53;;;;;;;13.85;7.50;;;;;;;20.84;58.06;100302.88;5062938;28;20067;-56
2022/08/19 03:05:19;;;;;;;15.88;7.88;;;;;;;20.79;58.04;100289.97;5063094;28;20088;-56
2022/08/19 03:07:46;;;;;;;12.13;7.78;;;;;;;20.73;58.50;100305.25;5063114;28;20017;-56
2022/08/19 03:10:12;;;;;;;13.02;8.13;;;;;;;20.76;58.37;100295.38;5064263;28;20102;-56
2022/08/19 03:12:38;;;;;;;12.90;8.38;;;;;;;20.70;58.63;100293.09;5055745;28;20033;-56
2022/08/19 03:15:05;;;;;;;14.40;8.20;;;;;;;20.85;58.28;100299.31;5060942;28;20093;-57
2022/08/19 03:17:31;;;;;;;13.77;8.93;;;;;;;20.85;58.10;100304.59;5087226;28;20043;-56
2022/08/19 03:19:57;;;;;;;15.02;8.93;;;;;;;20.61;58.62;100296.19;5087346;28;20232;-56
2022/08/19 03:22:22;;;;;;;14.77;8.70;;;;;;;20.69;58.66;100294.88;5051625;28;20388;-57
2022/08/19 03:24:48;;;;;;;16.02;9.18;;;;;;;20.71;58.68;100300.06;5072910;28;20020;-56
2022/08/19 03:27:14;;;;;;;15.18;8.48;;;;;;;20.79;58.27;100300.50;5078725;28;20024;-56
2022/08/19 03:29:40;;;;;;;17.65;8.93;;;;;;;20.63;58.80;100304.84;5067056;28;20028;-56
2022/08/19 03:32:06;;;;;;;14.02;8.90;;;;;;;20.59;59.02;100312.03;5066622;28;20028;-56
2022/08/19 03:34:34;;;;;;;14.90;8.48;;;;;;;20.47;59.48;100287.22;5067039;28;20092;-56
2022/08/19 03:37:05;;;;;;;16.48;9.57;;;;;;;20.51;59.54;100303.72;5066603;28;20040;-55
2022/08/19 03:39:31;;;;;;;16.83;9.00;;;;;;;20.51;59.27;100296.66;5066452;28;20408;-56
2022/08/19 03:41:59;;;;;;;13.50;8.50;;;;;;;20.52;59.66;100303.66;5066732;28;20029;-57
2022/08/19 03:44:25;;;;;;;12.80;8.70;;;;;;;20.46;59.28;100297.84;5066483;28;20209;-57
2022/08/19 03:46:54;;;;;;;19.65;9.80;;;;;;;20.41;59.46;100268.28;5051579;28;20025;-57
2022/08/19 03:49:21;;;;;;;15.35;8.63;;;;;;;20.46;59.73;100303.94;5046275;28;20257;-57
2022/08/19 03:51:50;;;;;;;13.23;8.15;;;;;;;20.32;58.86;100267.00;5046485;28;20036;-57
2022/08/19 03:54:18;;;;;;;13.77;8.43;;;;;;;20.51;58.91;100257.19;5047973;28;20344;-57
2022/08/19 03:56:45;;;;;;;12.63;8.15;;;;;;;20.73;59.24;100299.97;5066198;28;20055;-56
2022/08/19 03:59:18;;;;;;;18.10;8.05;;;;;;;20.71;59.20;100313.22;5066300;28;20029;-55
2022/08/19 04:01:43;;;;;;;17.23;7.95;;;;;;;20.65;59.35;100324.03;5066455;28;20074;-56
2022/08/19 04:04:10;;;;;;;19.13;8.30;;;;;;;20.61;59.50;100304.94;5066212;28;20021;-56
2022/08/19 04:06:38;;;;;;;17.33;7.82;;;;;;;20.38;59.65;100255.28;5066241;28;20029;-55
2022/08/19 04:09:06;;;;;;;13.30;8.80;;;;;;;20.63;59.62;100294.31;5066029;28;20025;-58
2022/08/19 04:11:41;;;;;;;12.27;7.90;;;;;;;20.83;59.22;100312.53;5064030;28;20017;-56
2022/08/19 04:14:09;;;;;;;15.40;8.05;;;;;;;20.90;59.27;100312.22;5046116;28;20033;-56
2022/08/19 04:16:34;;;;;;;12.95;7.32;;;;;;;20.69;59.26;100307.19;5045957;28;20029;-56
2022/08/19 04:19:02;;;;;;;14.10;7.55;;;;;;;20.63;59.66;100310.13;5089927;28;20031;-56
2022/08/19 04:21:28;;;;;;;13.70;7.68;;;;;;;20.86;59.16;100316.78;5065400;28;20040;-56
2022/08/19 04:23:55;;;;;;;12.15;7.10;;;;;;;21.09;58.82;100320.84;5050764;28;20021;-56
2022/08/19 04:26:24;;;;;;;12.45;7.22;;;;;;;20.82;58.50;100267.88;5065538;28;20201;-56
2022/08/19 04:28:51;;;;;;;11.38;6.88;;;;;;;21.07;58.96;100317.41;5051954;28;20029;-57
2022/08/19 04:31:25;;;;;;;11.95;7.13;;;;;;;20.77;58.39;100276.03;5065915;28;20027;-57
2022/08/19 04:33:56;;;;;;;11.25;6.68;;;;;;;20.80;59.45;100320.63;5065653;28;20025;-57
2022/08/19 04:36:25;;;;;;;10.10;6.60;;;;;;;20.79;58.90;100315.44;5065490;28;20313;-59
2022/08/19 04:38:56;;;;;;;13.57;6.35;;;;;;;20.91;58.86;100314.78;5069123;28;20107;-58
2022/08/19 04:44:07;;;;;;;13.35;6.43;;;;;;;21.21;58.09;100327.19;5054418;28;20433;-58
2022/08/19 04:46:52;;;;;;;13.55;6.70;;;;;;;21.29;58.45;100329.38;5071065;28;20036;-58
2022/08/19 04:49:23;;;;;;;14.57;6.45;;;;;;;21.01;58.19;100278.25;5081492;28;20088;-55
2022/08/19 04:51:54;;;;;;;8.85;6.30;;;;;;;21.59;57.98;100321.59;5080385;28;20028;-56
2022/08/19 04:54:22;;;;;;;12.05;6.55;;;;;;;21.62;57.79;100323.19;5071326;28;20036;-56
2022/08/19 04:56:52;;;;;;;9.93;6.18;;;;;;;21.47;58.25;100324.88;5069014;28;20051;-56
2022/08/19 04:59:19;;;;;;;10.98;6.60;;;;;;;21.55;58.05;100327.97;5085316;28;20028;-56
2022/08/19 05:01:49;;;;;;;14.07;6.25;;;;;;;21.57;58.58;100328.72;5085136;28;20038;-56
2022/08/19 05:04:16;;;;;;;10.50;6.00;;;;;;;21.72;57.94;100324.38;5053280;28;20105;-55
2022/08/19 05:06:42;;;;;;;11.05;5.93;;;;;;;21.60;58.15;100319.78;5045075;28;20044;-55
2022/08/19 05:09:08;;;;;;;12.13;5.97;;;;;;;21.91;57.64;100323.31;5043427;28;20033;-56
2022/08/19 05:11:38;;;;;;;9.50;5.80;;;;;;;21.88;57.01;100292.66;5046899;28;20076;-55
2022/08/19 05:14:04;;;;;;;7.50;5.40;;;;;;;22.00;57.22;100326.22;5083073;28;20031;-57
2022/08/19 05:16:29;;;;;;;9.68;6.43;;;;;;;21.91;57.63;100321.50;5047279;28;20037;-57
2022/08/19 05:24:27;;;;;;;10.23;6.25;;;;;;;22.15;57.70;100310.44;5043021;28;20029;-57
2022/08/19 05:26:56;;;;;;;9.50;6.13;;;;;;;22.20;57.14;100316.28;5051508;28;20024;-57
2022/08/19 05:29:24;;;;;;;8.85;6.03;;;;;;;22.28;57.09;100332.50;5072387;28;20305;-57
2022/08/19 05:31:50;;;;;;;11.25;6.85;;;;;;;22.40;57.54;100318.63;5062943;28;20017;-56
2022/08/19 05:34:21;;;;;;;11.98;6.43;;;;;;;22.43;56.78;100312.28;5078724;28;20031;-56
2022/08/19 05:36:48;;;;;;;9.63;5.97;;;;;;;22.39;56.67;100321.34;5061050;28;20048;-56
2022/08/19 05:39:17;;;;;;;10.85;6.10;;;;;;;22.23;57.25;100306.41;5043860;28;20094;-57
2022/08/19 05:41:46;;;;;;;7.63;5.45;;;;;;;22.28;56.63;100329.88;5043806;28;20360;-56
2022/08/19 05:44:12;;;;;;;14.40;6.00;;;;;;;22.27;56.92;100324.69;5044426;28;20033;-57
2022/08/19 05:46:38;;;;;;;11.50;6.28;;;;;;;22.35;56.58;100325.94;5044060;28;20025;-56
2022/08/19 05:49:06;;;;;;;9.80;6.57;;;;;;;22.48;56.86;100326.06;5057088;28;20029;-57
2022/08/19 05:51:33;;;;;;;10.25;6.22;;;;;;;22.69;56.47;100321.25;5064271;28;20039;-57
2022/08/19 05:54:00;;;;;;;12.38;6.72;;;;;;;22.77;55.69;100319.94;5064099;28;20029;-56
2022/08/19 05:56:26;;;;;;;13.77;6.20;;;;;;;22.75;56.48;100326.16;5063570;28;20025;-56
2022/08/19 05:58:53;;;;;;;10.40;6.82;;;;;;;22.62;56.42;100329.63;5044617;28;20070;-56
2022/08/19 06:01:19;;;;;;;9.23;6.15;;;;;;;22.60;56.58;100327.09;5050410;28;20029;-56
2022/08/19 06:03:45;;;;;;;10.63;6.65;;;;;;;22.85;55.90;100320.31;5051711;28;20025;-56
2022/08/19 06:06:13;;;;;;;12.15;6.57;;;;;;;22.82;55.63;100280.88;5056956;28;20052;-57
2022/08/19 06:08:39;;;;;;;9.52;6.45;;;;;;;23.15;55.42;100317.53;5081763;28;20083;-57
2022/08/19 06:11:16;;;;;;;10.43;6.10;;;;;;;23.32;55.67;100331.47;5063692;28;20025;-56
2022/08/19 06:13:43;;;;;;;10.82;6.82;;;;;;;23.39;55.20;100322.19;5044806;28;20256;-56
2022/08/19 06:16:08;;;;;;;8.43;6.13;;;;;;;23.44;55.05;100328.88;5043673;28;20131;-57
2022/08/19 06:18:34;;;;;;;10.65;5.80;;;;;;;23.39;54.50;100332.78;5043744;28;20049;-56
2022/08/19 06:21:04;;;;;;;14.73;6.40;;;;;;;23.60;54.36;100331.38;5043649;28;20053;-56
2022/08/19 06:23:30;;;;;;;12.00;6.20;;;;;;;23.59;54.34;100331.47;5043603;28;20194;-56
2022/08/19 06:25:56;;;;;;;10.25;6.00;;;;;;;23.77;53.80;100326.75;5043524;28;20195;-57
2022/08/19 06:28:23;;;;;;;12.88;6.78;;;;;;;23.90;53.84;100334.75;5056006;28;20097;-58
2022/08/19 06:30:51;;;;;;;9.23;5.85;;;;;;;23.91;52.92;100341.75;5063056;28;20028;-56
2022/08/19 06:33:16;;;;;;;8.02;5.55;;;;;;;24.01;51.76;100340.16;5063474;28;20025;-58
2022/08/19 06:35:42;;;;;;;9.50;5.75;;;;;;;24.13;52.48;100339.34;5060903;28;20051;-57
2022/08/19 06:38:09;;;;;;;9.65;5.80;;;;;;;24.11;52.34;100335.09;5059209;28;20355;-58
2022/08/19 06:40:36;;;;;;;8.95;6.22;;;;;;;24.45;52.05;100324.84;5063341;28;20036;-57
2022/08/19 06:43:02;;;;;;;13.27;5.93;;;;;;;24.66;51.65;100333.13;5060412;28;20029;-57
2022/08/19 06:45:28;;;;;;;11.02;5.57;;;;;;;24.51;50.68;100332.34;5058698;28;20017;-57
2022/08/19 06:47:55;;;;;;;7.05;4.85;;;;;;;24.48;50.14;100316.69;5050889;28;20062;-58
2022/08/19 06:50:22;;;;;;;12.18;5.30;;;;;;;24.72;50.92;100329.22;5083507;28;20021;-58
2022/08/19 06:52:48;;;;;;;12.43;5.10;;;;;;;24.71;50.49;100327.50;5082111;28;20062;-57
2022/08/19 06:55:15;;;;;;;11.25;5.30;;;;;;;24.33;50.14;100299.22;5068289;28;20029;-57
2022/08/19 06:57:42;;;;;;;8.23;4.60;;;;;;;24.37;50.24;100335.97;5063069;28;20021;-57
2022/08/19 07:00:12;;;;;;;11.43;5.07;;;;;;;24.34;50.38;100320.28;5068805;28;20355;-57
2022/08/19 07:02:39;;;;;;;7.28;4.45;;;;;;;24.58;50.19;100332.78;5080031;28;20020;-57
2022/08/19 07:05:06;;;;;;;10.05;4.90;;;;;;;24.69;49.71;100335.56;5050173;28;20270;-57
2022/08/19 07:07:31;;;;;;;10.55;5.18;;;;;;;24.56;49.54;100343.50;5080422;28;20037;-56
2022/08/19 07:09:57;;;;;;;6.80;5.00;;;;;;;24.72;49.15;100338.00;5058276;28;20026;-59
2022/08/19 07:12:22;;;;;;;9.75;4.70;;;;;;;24.74;48.84;100335.22;5050686;28;20082;-57
2022/08/19 07:14:49;;;;;;;10.30;5.00;;;;;;;24.74;48.93;100336.09;5062820;28;20049;-60
2022/08/19 07:17:15;;;;;;;9.55;5.25;;;;;;;24.85;49.12;100335.31;5062858;28;20048;-59
2022/08/19 07:19:42;;;;;;;9.68;5.43;;;;;;;25.15;48.76;100332.31;5062897;28;20071;-58
2022/08/19 07:22:08;;;;;;;8.50;5.00;;;;;;;25.20;47.96;100328.44;5062850;28;20033;-57
2022/08/19 07:24:35;;;;;;;9.52;4.70;;;;;;;25.33;48.03;100340.75;5055804;28;20025;-56
2022/08/19 07:27:03;;;;;;;7.88;4.82;;;;;;;25.01;47.25;100294.47;5065441;28;20028;-56
2022/08/19 07:29:32;;;;;;;8.50;4.82;;;;;;;25.00;47.16;100283.03;5062812;28;20040;-57
2022/08/19 07:31:59;;;;;;;12.18;4.93;;;;;;;25.26;47.10;100338.63;5062759;28;20029;-56
2022/08/19 07:34:26;;;;;;;10.52;4.50;;;;;;;25.13;46.83;100336.84;5046649;28;20318;-57
2022/08/19 07:36:54;;;;;;;9.18;4.70;;;;;;;24.90;47.25;100288.16;5042791;28;20038;-56
2022/08/19 07:39:24;;;;;;;10.65;4.93;;;;;;;25.06;47.10;100301.13;5042836;28;20068;-57
2022/08/19 07:41:50;;;;;;;9.15;4.30;;;;;;;25.37;47.19;100345.81;5057754;28;20037;-58
2022/08/19 07:44:19;;;;;;;6.78;4.78;;;;;;;24.93;47.46;100301.19;5062784;28;20031;-59
2022/08/19 07:46:50;;;;;;;7.15;4.72;;;;;;;24.87;47.29;100317.53;5048164;28;20253;-58
2022/08/19 07:49:19;;;;;;;9.55;4.97;;;;;;;24.88;48.18;100351.00;5042727;28;20064;-56
2022/08/19 07:51:47;;;;;;;12.55;5.15;;;;;;;25.16;48.30;100362.28;5063674;28;20313;-57
2022/08/19 07:54:13;;;;;;;10.90;5.13;;;;;;;25.04;48.17;100349.91;5081442;28;20028;-59
2022/08/19 07:56:39;;;;;;;7.50;5.30;;;;;;;25.06;48.51;100359.47;5059091;28;20031;-57
2022/08/19 07:59:05;;;;;;;8.27;4.85;;;;;;;24.90;48.96;100358.88;5050004;28;20104;-58
2022/08/19 08:01:31;;;;;;;9.10;5.78;;;;;;;24.94;49.67;100361.19;5064226;28;20302;-58
2022/08/19 08:09:33;;;;;;;8.00;5.22;;;;;;;24.59;49.08;100316.78;5062552;28;20325;-58
2022/08/19 08:12:06;;;;;;;8.30;4.70;;;;;;;24.79;49.58;100336.59;5068660;28;20322;-58
2022/08/19 08:14:36;;;;;;;13.35;5.15;;;;;;;24.65;49.32;100318.19;5046253;28;20028;-59
2022/08/19 08:17:04;;;;;;;12.98;5.70;;;;;;;24.80;49.41;100300.38;5046096;28;20092;-57
2022/08/19 08:19:30;;;;;;;9.40;5.20;;;;;;;25.21;49.21;100357.53;5078896;28;20032;-57
2022/08/19 08:21:59;;;;;;;8.98;5.68;;;;;;;25.40;49.69;100362.38;5085645;28;20044;-60
2022/08/19 08:24:26;;;;;;;9.60;5.60;;;;;;;25.02;49.07;100320.88;5063455;28;20032;-57
2022/08/19 08:26:52;;;;;;;10.57;5.25;;;;;;;25.44;48.24;100362.97;5065596;28;20033;-57
2022/08/19 08:29:19;;;;;;;8.82;5.13;;;;;;;25.48;48.12;100364.44;5065526;28;20049;-57
2022/08/19 08:31:45;;;;;;;11.20;5.03;;;;;;;25.61;47.08;100375.00;5065522;28;20033;-57
2022/08/19 08:34:13;;;;;;;9.60;5.15;;;;;;;25.69;46.85;100366.50;5061656;28;20048;-57
2022/08/19 08:36:42;;;;;;;12.02;5.63;;;;;;;25.79;46.81;100378.94;5063482;28;20021;-57
2022/08/19 08:39:19;;;;;;;8.23;4.90;;;;;;;25.70;46.53;100378.81;5059904;28;20045;-58
2022/08/19 08:42:14;;;;;;;7.32;4.63;;;;;;;25.46;47.16;100371.69;5065284;28;20312;-56
2022/08/19 08:45:05;;;;;;;8.30;4.50;;;;;;;25.37;46.47;100375.84;5076407;28;20036;-58
2022/08/19 08:47:37;;;;;;;7.80;4.47;;;;;;;25.25;46.62;100372.22;5062250;28;20040;-58
2022/08/19 08:50:18;;;;;;;6.70;4.68;;;;;;;25.60;46.53;100373.31;5045724;28;20104;-57
2022/08/19 08:52:48;;;;;;;7.88;4.38;;;;;;;25.35;46.25;100327.34;5053426;28;20092;-57
2022/08/19 08:55:19;;;;;;;11.20;5.18;;;;;;;25.10;47.11;100338.88;5054683;28;20075;-59
2022/08/19 08:57:48;;;;;;;9.23;5.20;;;;;;;25.77;46.87;100369.44;5055254;28;20063;-58
2022/08/19 09:00:24;;;;;;;7.88;4.63;;;;;;;25.03;46.86;100330.53;5052117;28;20066;-58
2022/08/19 09:02:50;;;;;;;6.63;4.85;;;;;;;25.18;46.65;100362.19;5059396;28;20029;-57
2022/08/19 09:05:18;;;;;;;9.43;5.57;;;;;;;25.08;47.03;100367.28;5050353;28;20114;-58
2022/08/19 09:07:53;;;;;;;8.98;5.30;;;;;;;25.25;45.86;100364.28;5045231;28;20033;-57
2022/08/19 09:10:28;;;;;;;7.35;5.07;;;;;;;25.16;46.71;100373.75;5060714;28;20266;-59
2022/08/19 09:13:14;;;;;;;6.43;5.00;;;;;;;25.36;46.58;100378.63;5075171;28;20051;-58
2022/08/19 09:15:47;;;;;;;10.13;5.15;;;;;;;25.26;46.22;100384.53;5075748;28;20095;-56
2022/08/19 09:18:15;;;;;;;7.93;5.13;;;;;;;25.41;45.78;100381.75;5065314;28;20028;-57
2022/08/19 09:20:40;;;;;;;12.40;5.43;;;;;;;25.41;45.14;100374.66;5044851;28;20051;-56
2022/08/19 09:23:06;;;;;;;12.20;5.97;;;;;;;25.52;44.04;100379.19;5060433;28;20048;-56
2022/08/19 09:25:34;;;;;;;11.02;5.97;;;;;;;25.40;43.76;100380.09;5063961;28;20052;-56
2022/08/19 09:28:03;;;;;;;6.85;4.75;;;;;;;25.15;44.63;100376.50;5061042;28;20096;-58
2022/08/19 09:30:33;;;;;;;11.77;6.22;;;;;;;25.11;44.39;100338.78;5063937;28;20313;-57
2022/08/19 09:32:59;;;;;;;12.23;6.68;;;;;;;25.61;44.29;100378.50;5067220;28;20039;-58
2022/08/19 09:35:31;;;;;;;10.48;6.53;;;;;;;25.88;43.57;100387.19;5056025;28;20035;-57
2022/08/19 09:37:58;;;;;;;8.85;4.70;;;;;;;25.43;42.73;100377.22;5053502;28;20264;-59
2022/08/19 09:40:25;;;;;;;6.70;4.70;;;;;;;25.52;42.71;100397.75;5060975;28;20055;-59
2022/08/19 09:42:51;;;;;;;6.15;5.28;;;;;;;25.39;43.47;100383.69;5073342;28;20062;-59
2022/08/19 09:45:20;;;;;;;10.57;5.90;;;;;;;25.24;43.47;100340.53;5072092;28;20017;-59
2022/08/19 09:47:46;;;;;;;10.25;6.93;;;;;;;25.67;43.61;100386.00;5057642;28;20092;-58
2022/08/19 09:50:13;;;;;;;9.93;6.32;;;;;;;25.84;43.68;100375.97;5045956;28;20048;-58
2022/08/19 09:52:39;;;;;;;10.70;6.13;;;;;;;25.93;43.49;100391.19;5060017;28;20253;-58
2022/08/19 09:55:07;;;;;;;10.35;5.60;;;;;;;25.90;43.60;100386.13;5059683;28;20047;-58
2022/08/19 09:57:33;;;;;;;11.70;5.85;;;;;;;25.92;43.57;100378.88;5056907;28;20080;-56
2022/08/19 09:59:59;;;;;;;10.48;5.95;;;;;;;25.82;42.86;100391.16;5063083;28;20322;-56
2022/08/19 10:02:25;;;;;;;9.65;6.43;;;;;;;25.63;43.65;100397.81;5063574;28;20044;-59
2022/08/19 10:07:36;;;;;;;8.02;5.75;;;;;;;25.72;43.88;100398.09;5047820;28;20087;-59
2022/08/19 10:10:06;;;;;;;8.25;5.50;;;;;;;25.88;42.22;100409.28;5051961;28;20021;-57
2022/08/19 10:12:33;;;;;;;7.55;5.20;;;;;;;25.57;42.17;100392.97;5058957;28;20103;-58
2022/08/19 10:14:59;;;;;;;10.18;5.68;;;;;;;25.77;42.39;100388.84;5083145;28;20036;-60
2022/08/19 10:17:25;;;;;;;8.60;5.55;;;;;;;25.80;40.32;100385.94;5083054;28;20337;-58
2022/08/19 10:19:51;;;;;;;8.27;5.35;;;;;;;25.84;39.82;100382.13;5056104;28;20041;-58
2022/08/19 10:22:18;;;;;;;8.50;5.95;;;;;;;25.84;37.83;100344.13;5060252;28;20047;-59
2022/08/19 10:24:43;;;;;;;12.25;6.15;;;;;;;26.16;37.88;100393.97;5054359;28;20048;-58
2022/08/19 10:27:09;;;;;;;11.05;5.50;;;;;;;25.91;35.96;100393.13;5056458;28;20373;-59
2022/08/19 10:29:35;;;;;;;12.80;5.22;;;;;;;26.06;34.81;100403.59;5062771;28;20217;-63
2022/08/19 10:32:03;;;;;;;10.90;5.28;;;;;;;25.99;34.82;100406.66;5063356;28;20021;-61
2022/08/19 10:34:29;;;;;;;19.13;5.60;;;;;;;26.10;34.92;100410.38;5063173;28;20036;-60
2022/08/19 10:36:57;;;;;;;11.90;4.60;;;;;;;25.79;31.86;100367.50;5061291;28;20047;-59
2022/08/19 10:39:22;;;;;;;6.88;3.40;;;;;;;25.89;31.46;100416.25;5062541;28;20033;-59
2022/08/19 10:41:48;;;;;;;8.05;3.92;;;;;;;26.07;32.34;100423.88;5061418;28;20245;-60
2022/08/19 10:44:15;;;;;;;8.88;3.80;;;;;;;25.92;31.91;100416.03;5061710;28;20086;-60
2022/08/19 10:46:46;;;;;;;12.07;3.88;;;;;;;25.53;30.33;100369.44;5057288;28;20013;-62
2022/08/19 10:49:13;;;;;;;6.38;3.33;;;;;;;25.70;30.35;100426.56;5064812;28;20037;-59
2022/08/19 10:56:50;;;;;;;6.05;3.30;;;;;;;25.78;30.60;100422.38;5045642;28;21086;-59
2022/08/19 10:57:10;;;;;;;9.07;3.92;;;;;;;25.83;30.53;100428.19;5067267;28;20029;-59
2022/08/19 10:59:37;;;;;;;3.30;2.72;;;;;;;25.83;30.38;100433.50;5082945;28;20039;-59
2022/08/19 11:02:05;;;;;;;4.18;3.08;;;;;;;25.40;30.49;100388.88;5043485;28;20026;-58
2022/08/19 11:04:32;;;;;;;6.25;3.08;;;;;;;25.54;30.29;100425.03;5042803;28;20051;-60
2022/08/19 11:07:16;;;;;;;11.23;3.67;;;;;;;25.56;30.64;100425.75;5052101;28;20044;-61
2022/08/19 11:09:42;;;;;;;6.63;2.97;;;;;;;25.76;30.86;100418.97;5056184;28;20078;-59
2022/08/19 11:12:09;;;;;;;6.70;3.75;;;;;;;25.75;30.89;100427.06;5055359;28;20293;-60
2022/08/19 11:14:36;;;;;;;5.55;3.45;;;;;;;25.72;30.31;100411.38;5062670;28;20056;-61
2022/08/19 11:17:03;;;;;;;7.15;3.50;;;;;;;25.68;30.36;100402.78;5062620;28;20024;-61
2022/08/19 11:19:29;;;;;;;7.70;3.10;;;;;;;25.60;31.42;100411.31;5062650;28;20036;-62
2022/08/19 11:21:55;;;;;;;6.63;3.22;;;;;;;25.72;32.11;100404.25;5072875;28;20040;-60
2022/08/19 11:24:24;;;;;;;8.38;3.70;;;;;;;25.84;32.34;100399.84;5076981;28;20097;-60
2022/08/19 11:26:56;;;;;;;10.82;3.70;;;;;;;26.11;32.59;100404.94;5063541;28;20096;-58
2022/08/19 11:29:25;;;;;;;6.57;3.50;;;;;;;26.24;31.89;100404.00;5061805;28;20087;-59
2022/08/19 11:31:51;;;;;;;6.50;3.85;;;;;;;26.40;32.24;100393.06;5044936;28;20026;-58
2022/08/19 11:34:20;;;;;;;6.20;3.60;;;;;;;26.34;31.45;100397.88;5046730;28;20034;-59
2022/08/19 11:36:47;;;;;;;7.07;3.13;;;;;;;26.09;32.23;100411.31;5046382;28;20030;-61
2022/08/19 11:39:16;;;;;;;7.25;3.40;;;;;;;25.94;32.47;100379.63;5054881;28;20236;-60
2022/08/19 11:41:41;;;;;;;4.95;3.10;;;;;;;25.84;32.63;100391.91;5086355;28;20034;-61